sensor_id;sensor_type;location;lat;lon;timestamp;pressure;altitude;pressure_sealevel;temperature;humidity
38452;BME280;24231;52.514;13.438;2023-07-29T00:02:15;100346.41;;;23.20;61.73
38452;BME280;24231;52.514;13.438;2023-07-29T00:04:42;100344.01;;;22.32;65.35
38452;BME280;24231;52.514;13.438;2023-07-29T00:07:09;100338.38;;;22.70;64.95
38452;BME280;24231;52.514;13.438;2023-07-29T00:09:36;100336.10;;;22.88;64.25
38452;BME280;24231;52.514;13.438;2023-07-29T00:12:04;100335.42;;;22.82;63.51
38452;BME280;24231;52.514;13.438;2023-07-29T00:14:32;100339.59;;;23.45;61.62
38452;BME280;24231;52.514;13.438;2023-07-29T00:16:59;100343.32;;;23.70;61.06
38452;BME280;24231;52.514;13.438;2023-07-29T00:19:26;100339.04;;;22.71;64.03
38452;BME280;24231;52.514;13.438;2023-07-29T00:21:52;100343.58;;;21.35;68.46
38452;BME280;24231;52.514;13.438;2023-07-29T00:24:19;100337.91;;;21.67;67.19
38452;BME280;24231;52.514;13.438;2023-07-29T00:26:46;100338.83;;;22.46;64.81
38452;BME280;24231;52.514;13.438;2023-07-29T00:29:13;100339.52;;;21.67;67.23
38452;BME280;24231;52.514;13.438;2023-07-29T00:31:40;100338.64;;;21.15;69.83
38452;BME280;24231;52.514;13.438;2023-07-29T00:34:07;100337.73;;;20.89;70.74
38452;BME280;24231;52.514;13.438;2023-07-29T00:36:34;100330.74;;;20.13;73.57
38452;BME280;24231;52.514;13.438;2023-07-29T00:39:01;100331.33;;;21.68;67.58
38452;BME280;24231;52.514;13.438;2023-07-29T00:41:28;100334.83;;;20.42;72.14
38452;BME280;24231;52.514;13.438;2023-07-29T00:43:55;100336.45;;;20.01;74.72
38452;BME280;24231;52.514;13.438;2023-07-29T00:46:23;100338.20;;;19.40;77.89
38452;BME280;24231;52.514;13.438;2023-07-29T00:48:51;100340.60;;;19.34;78.76
38452;BME280;24231;52.514;13.438;2023-07-29T00:51:18;100336.63;;;20.25;75.10
38452;BME280;24231;52.514;13.438;2023-07-29T00:53:46;100337.17;;;20.75;72.02
38452;BME280;24231;52.514;13.438;2023-07-29T00:56:13;100331.36;;;20.27;74.00
38452;BME280;24231;52.514;13.438;2023-07-29T00:58:40;100331.99;;;20.36;72.54
38452;BME280;24231;52.514;13.438;2023-07-29T01:01:08;100327.47;;;20.15;74.77
38452;BME280;24231;52.514;13.438;2023-07-29T01:03:35;100333.13;;;21.16;70.37
38452;BME280;24231;52.514;13.438;2023-07-29T01:06:09;100326.98;;;21.60;68.50
38452;BME280;24231;52.514;13.438;2023-07-29T01:08:50;100320.60;;;21.66;67.07
38452;BME280;24231;52.514;13.438;2023-07-29T01:11:33;100317.49;;;21.75;66.92
38452;BME280;24231;52.514;13.438;2023-07-29T01:14:08;100310.91;;;22.53;63.99
38452;BME280;24231;52.514;13.438;2023-07-29T01:16:42;100310.45;;;22.83;61.95
38452;BME280;24231;52.514;13.438;2023-07-29T01:19:25;100306.36;;;21.84;65.30
38452;BME280;24231;52.514;13.438;2023-07-29T01:21:57;100305.37;;;20.99;69.78
38452;BME280;24231;52.514;13.438;2023-07-29T01:24:25;100299.85;;;21.39;68.52
38452;BME280;24231;52.514;13.438;2023-07-29T01:26:52;100295.56;;;21.48;67.95
38452;BME280;24231;52.514;13.438;2023-07-29T01:29:19;100296.03;;;21.31;68.16
38452;BME280;24231;52.514;13.438;2023-07-29T01:31:48;100287.57;;;22.37;64.38
38452;BME280;24231;52.514;13.438;2023-07-29T01:34:24;100281.52;;;22.35;63.68
38452;BME280;24231;52.514;13.438;2023-07-29T01:36:54;100281.67;;;22.54;62.52
38452;BME280;24231;52.514;13.438;2023-07-29T01:39:26;100286.19;;;22.71;62.13
38452;BME280;24231;52.514;13.438;2023-07-29T01:41:56;100290.70;;;23.02;61.23
38452;BME280;24231;52.514;13.438;2023-07-29T01:44:23;100293.13;;;22.88;60.93
38452;BME280;24231;52.514;13.438;2023-07-29T01:46:51;100297.46;;;22.37;62.72
38452;BME280;24231;52.514;13.438;2023-07-29T01:49:18;100305.12;;;20.74;69.05
38452;BME280;24231;52.514;13.438;2023-07-29T01:51:45;100308.24;;;21.13;67.56
38452;BME280;24231;52.514;13.438;2023-07-29T01:54:12;100309.48;;;21.11;68.14
38452;BME280;24231;52.514;13.438;2023-07-29T01:56:40;100306.71;;;21.50;66.83
38452;BME280;24231;52.514;13.438;2023-07-29T01:59:07;100303.14;;;21.68;65.94
38452;BME280;24231;52.514;13.438;2023-07-29T02:01:34;100301.30;;;22.63;62.86
38452;BME280;24231;52.514;13.438;2023-07-29T02:04:02;100306.00;;;21.56;65.62
38452;BME280;24231;52.514;13.438;2023-07-29T02:06:28;100310.95;;;21.51;66.47
38452;BME280;24231;52.514;13.438;2023-07-29T02:08:56;100309.33;;;22.68;62.58
38452;BME280;24231;52.514;13.438;2023-07-29T02:11:23;100315.37;;;21.50;65.11
38452;BME280;24231;52.514;13.438;2023-07-29T02:13:50;100309.33;;;22.46;63.10
38452;BME280;24231;52.514;13.438;2023-07-29T02:16:17;100310.42;;;20.45;70.22
38452;BME280;24231;52.514;13.438;2023-07-29T02:18:44;100306.87;;;19.98;72.16
38452;BME280;24231;52.514;13.438;2023-07-29T02:21:11;100305.20;;;21.48;67.55
38452;BME280;24231;52.514;13.438;2023-07-29T02:23:39;100305.71;;;20.26;70.93
38452;BME280;24231;52.514;13.438;2023-07-29T02:26:06;100310.12;;;19.49;75.68
38452;BME280;24231;52.514;13.438;2023-07-29T02:28:34;100309.27;;;19.03;77.68
38452;BME280;24231;52.514;13.438;2023-07-29T02:31:15;100304.29;;;19.40;76.67
38452;BME280;24231;52.514;13.438;2023-07-29T02:33:44;100299.32;;;19.57;75.60
38452;BME280;24231;52.514;13.438;2023-07-29T02:36:12;100303.84;;;18.55;80.11
38452;BME280;24231;52.514;13.438;2023-07-29T02:38:41;100296.73;;;19.20;76.97
38452;BME280;24231;52.514;13.438;2023-07-29T02:41:08;100298.11;;;19.84;74.36
38452;BME280;24231;52.514;13.438;2023-07-29T02:43:36;100302.04;;;19.98;72.64
38452;BME280;24231;52.514;13.438;2023-07-29T02:46:02;100308.06;;;19.25;76.34
38452;BME280;24231;52.514;13.438;2023-07-29T02:48:29;100305.96;;;19.06;77.58
38452;BME280;24231;52.514;13.438;2023-07-29T02:50:57;100302.70;;;19.27;76.99
38452;BME280;24231;52.514;13.438;2023-07-29T02:53:24;100299.87;;;18.89;77.92
38452;BME280;24231;52.514;13.438;2023-07-29T02:55:51;100297.68;;;19.36;76.54
38452;BME280;24231;52.514;13.438;2023-07-29T02:58:18;100299.97;;;19.11;76.35
38452;BME280;24231;52.514;13.438;2023-07-29T03:00:45;100301.60;;;20.14;72.55
38452;BME280;24231;52.514;13.438;2023-07-29T03:03:13;100303.69;;;19.69;75.00
38452;BME280;24231;52.514;13.438;2023-07-29T03:05:40;100300.79;;;19.96;72.59
38452;BME280;24231;52.514;13.438;2023-07-29T03:08:07;100305.87;;;20.80;69.73
38452;BME280;24231;52.514;13.438;2023-07-29T03:10:35;100313.85;;;20.77;69.17
38452;BME280;24231;52.514;13.438;2023-07-29T03:13:02;100307.07;;;20.29;70.26
38452;BME280;24231;52.514;13.438;2023-07-29T03:15:30;100304.42;;;19.86;73.49
38452;BME280;24231;52.514;13.438;2023-07-29T03:17:56;100305.30;;;20.15;72.02
38452;BME280;24231;52.514;13.438;2023-07-29T03:20:23;100303.42;;;20.73;69.39
38452;BME280;24231;52.514;13.438;2023-07-29T03:22:51;100304.95;;;19.77;72.54
38452;BME280;24231;52.514;13.438;2023-07-29T03:25:18;100303.35;;;19.20;75.89
38452;BME280;24231;52.514;13.438;2023-07-29T03:27:45;100301.45;;;18.79;77.56
38452;BME280;24231;52.514;13.438;2023-07-29T03:30:12;100300.93;;;18.01;82.65
38452;BME280;24231;52.514;13.438;2023-07-29T03:32:44;100298.52;;;18.79;78.90
38452;BME280;24231;52.514;13.438;2023-07-29T03:35:11;100293.26;;;19.54;75.45
38452;BME280;24231;52.514;13.438;2023-07-29T03:37:38;100295.34;;;18.35;81.18
38452;BME280;24231;52.514;13.438;2023-07-29T03:40:07;100295.40;;;18.51;80.56
38452;BME280;24231;52.514;13.438;2023-07-29T03:42:34;100293.23;;;19.15;76.88
38452;BME280;24231;52.514;13.438;2023-07-29T03:45:02;100292.21;;;17.89;83.56
38452;BME280;24231;52.514;13.438;2023-07-29T03:47:29;100290.41;;;17.90;84.26
38452;BME280;24231;52.514;13.438;2023-07-29T03:49:56;100292.13;;;18.16;83.14
38452;BME280;24231;52.514;13.438;2023-07-29T03:52:24;100289.21;;;18.03;83.60
38452;BME280;24231;52.514;13.438;2023-07-29T03:54:52;100288.92;;;17.85;83.71
38452;BME280;24231;52.514;13.438;2023-07-29T03:57:19;100287.09;;;17.88;83.74
38452;BME280;24231;52.514;13.438;2023-07-29T03:59:46;100284.79;;;18.29;82.98
38452;BME280;24231;52.514;13.438;2023-07-29T04:02:13;100284.19;;;18.16;82.25
38452;BME280;24231;52.514;13.438;2023-07-29T04:04:41;100284.15;;;18.09;83.57
38452;BME280;24231;52.514;13.438;2023-07-29T04:07:07;100285.62;;;18.10;83.65
38452;BME280;24231;52.514;13.438;2023-07-29T04:09:34;100289.38;;;18.44;81.22
38452;BME280;24231;52.514;13.438;2023-07-29T04:12:02;100287.20;;;18.76;79.22
38452;BME280;24231;52.514;13.438;2023-07-29T04:14:29;100286.56;;;19.95;73.71
38452;BME280;24231;52.514;13.438;2023-07-29T04:16:56;100282.16;;;19.54;75.41
38452;BME280;24231;52.514;13.438;2023-07-29T04:19:23;100281.09;;;19.97;73.72
38452;BME280;24231;52.514;13.438;2023-07-29T04:21:51;100279.17;;;19.11;76.77
38452;BME280;24231;52.514;13.438;2023-07-29T04:24:18;100278.65;;;18.99;77.09
38452;BME280;24231;52.514;13.438;2023-07-29T04:26:45;100277.63;;;20.05;72.70
38452;BME280;24231;52.514;13.438;2023-07-29T04:29:12;100276.98;;;20.20;71.75
38452;BME280;24231;52.514;13.438;2023-07-29T04:31:39;100276.94;;;20.80;69.64
38452;BME280;24231;52.514;13.438;2023-07-29T04:34:11;100276.62;;;21.35;67.42
38452;BME280;24231;52.514;13.438;2023-07-29T04:36:38;100271.61;;;21.56;65.23
38452;BME280;24231;52.514;13.438;2023-07-29T04:39:05;100273.93;;;22.24;62.46
38452;BME280;24231;52.514;13.438;2023-07-29T04:41:32;100272.31;;;21.76;63.68
38452;BME280;24231;52.514;13.438;2023-07-29T04:43:59;100275.81;;;22.31;61.66
38452;BME280;24231;52.514;13.438;2023-07-29T04:46:27;100284.93;;;22.58;60.44
38452;BME280;24231;52.514;13.438;2023-07-29T04:48:54;100286.14;;;24.59;54.71
38452;BME280;24231;52.514;13.438;2023-07-29T04:51:23;100285.60;;;24.33;54.31
38452;BME280;24231;52.514;13.438;2023-07-29T04:53:51;100283.81;;;23.81;58.07
38452;BME280;24231;52.514;13.438;2023-07-29T04:56:18;100275.18;;;23.91;55.49
38452;BME280;24231;52.514;13.438;2023-07-29T04:58:46;100277.38;;;24.77;53.98
38452;BME280;24231;52.514;13.438;2023-07-29T05:01:13;100274.75;;;25.10;52.71
38452;BME280;24231;52.514;13.438;2023-07-29T05:03:41;100279.60;;;24.35;54.61
38452;BME280;24231;52.514;13.438;2023-07-29T05:06:08;100279.91;;;25.08;52.81
38452;BME280;24231;52.514;13.438;2023-07-29T05:08:35;100270.18;;;26.28;48.50
38452;BME280;24231;52.514;13.438;2023-07-29T05:11:02;100273.70;;;25.72;49.97
38452;BME280;24231;52.514;13.438;2023-07-29T05:13:30;100277.67;;;24.56;53.39
38452;BME280;24231;52.514;13.438;2023-07-29T05:15:57;100277.35;;;25.41;50.56
38452;BME280;24231;52.514;13.438;2023-07-29T05:18:24;100279.89;;;25.45;51.13
38452;BME280;24231;52.514;13.438;2023-07-29T05:20:52;100275.62;;;27.03;46.42
38452;BME280;24231;52.514;13.438;2023-07-29T05:23:20;100266.12;;;26.02;48.94
38452;BME280;24231;52.514;13.438;2023-07-29T05:25:48;100268.05;;;24.68;53.91
38452;BME280;24231;52.514;13.438;2023-07-29T05:28:14;100261.36;;;25.92;50.16
38452;BME280;24231;52.514;13.438;2023-07-29T05:30:43;100262.03;;;26.46;48.80
38452;BME280;24231;52.514;13.438;2023-07-29T05:33:10;100267.43;;;24.71;52.93
38452;BME280;24231;52.514;13.438;2023-07-29T05:35:38;100262.61;;;27.30;46.01
38452;BME280;24231;52.514;13.438;2023-07-29T05:38:05;100265.35;;;27.98;43.93
38452;BME280;24231;52.514;13.438;2023-07-29T05:40:44;100264.11;;;27.89;43.75
38452;BME280;24231;52.514;13.438;2023-07-29T05:43:12;100265.94;;;27.70;44.92
38452;BME280;24231;52.514;13.438;2023-07-29T05:45:39;100279.10;;;24.66;52.41
38452;BME280;24231;52.514;13.438;2023-07-29T05:48:19;100276.68;;;26.52;47.40
38452;BME280;24231;52.514;13.438;2023-07-29T05:50:47;100276.64;;;25.47;50.40
38452;BME280;24231;52.514;13.438;2023-07-29T05:53:15;100271.36;;;26.25;48.61
38452;BME280;24231;52.514;13.438;2023-07-29T05:55:42;100275.03;;;23.30;58.96
38452;BME280;24231;52.514;13.438;2023-07-29T05:58:10;100272.46;;;24.04;56.36
38452;BME280;24231;52.514;13.438;2023-07-29T06:00:38;100266.64;;;23.86;56.65
38452;BME280;24231;52.514;13.438;2023-07-29T06:03:05;100266.80;;;24.63;54.35
38452;BME280;24231;52.514;13.438;2023-07-29T06:05:33;100258.05;;;25.70;51.08
38452;BME280;24231;52.514;13.438;2023-07-29T06:08:00;100250.60;;;26.33;48.50
38452;BME280;24231;52.514;13.438;2023-07-29T06:10:28;100244.30;;;27.92;45.24
38452;BME280;24231;52.514;13.438;2023-07-29T06:12:55;100240.48;;;28.00;45.30
38452;BME280;24231;52.514;13.438;2023-07-29T06:15:23;100234.51;;;25.58;51.35
38452;BME280;24231;52.514;13.438;2023-07-29T06:17:51;100228.34;;;26.09;49.93
38452;BME280;24231;52.514;13.438;2023-07-29T06:20:19;100230.63;;;24.11;55.98
38452;BME280;24231;52.514;13.438;2023-07-29T06:22:46;100229.63;;;24.87;55.02
38452;BME280;24231;52.514;13.438;2023-07-29T06:25:14;100231.74;;;24.34;57.15
38452;BME280;24231;52.514;13.438;2023-07-29T06:27:41;100226.59;;;26.26;50.63
38452;BME280;24231;52.514;13.438;2023-07-29T06:30:09;100232.80;;;25.12;54.30
38452;BME280;24231;52.514;13.438;2023-07-29T06:32:36;100229.17;;;27.04;48.60
38452;BME280;24231;52.514;13.438;2023-07-29T06:35:04;100234.48;;;25.35;52.49
38452;BME280;24231;52.514;13.438;2023-07-29T06:37:32;100228.78;;;28.14;45.23
38452;BME280;24231;52.514;13.438;2023-07-29T06:40:07;100236.36;;;28.97;42.87
38452;BME280;24231;52.514;13.438;2023-07-29T06:42:34;100240.39;;;28.44;44.08
38452;BME280;24231;52.514;13.438;2023-07-29T06:45:02;100239.08;;;28.24;43.91
38452;BME280;24231;52.514;13.438;2023-07-29T06:47:29;100243.80;;;28.35;43.89
38452;BME280;24231;52.514;13.438;2023-07-29T06:49:57;100244.36;;;29.73;41.67
38452;BME280;24231;52.514;13.438;2023-07-29T06:52:24;100238.67;;;30.12;40.35
38452;BME280;24231;52.514;13.438;2023-07-29T06:54:52;100240.93;;;29.44;41.42
38452;BME280;24231;52.514;13.438;2023-07-29T06:57:20;100239.13;;;30.95;38.72
38452;BME280;24231;52.514;13.438;2023-07-29T06:59:47;100245.24;;;30.67;39.18
38452;BME280;24231;52.514;13.438;2023-07-29T07:02:15;100245.82;;;30.51;39.51
38452;BME280;24231;52.514;13.438;2023-07-29T07:04:42;100244.08;;;30.84;38.45
38452;BME280;24231;52.514;13.438;2023-07-29T07:07:09;100245.22;;;29.73;40.83
38452;BME280;24231;52.514;13.438;2023-07-29T07:09:37;100245.90;;;30.17;39.85
38452;BME280;24231;52.514;13.438;2023-07-29T07:12:17;100249.60;;;29.25;41.50
38452;BME280;24231;52.514;13.438;2023-07-29T07:14:45;100247.65;;;29.02;42.39
38452;BME280;24231;52.514;13.438;2023-07-29T07:17:13;100249.87;;;27.71;45.59
38452;BME280;24231;52.514;13.438;2023-07-29T07:19:41;100243.80;;;27.84;44.47
38452;BME280;24231;52.514;13.438;2023-07-29T07:22:08;100250.65;;;28.59;43.27
38452;BME280;24231;52.514;13.438;2023-07-29T07:24:36;100252.43;;;29.74;41.49
38452;BME280;24231;52.514;13.438;2023-07-29T07:27:04;100248.29;;;30.07;40.77
38452;BME280;24231;52.514;13.438;2023-07-29T07:29:32;100245.29;;;30.08;40.96
38452;BME280;24231;52.514;13.438;2023-07-29T07:31:59;100248.71;;;29.54;41.94
38452;BME280;24231;52.514;13.438;2023-07-29T07:34:27;100246.67;;;28.16;44.44
38452;BME280;24231;52.514;13.438;2023-07-29T07:36:54;100244.64;;;28.07;44.64
38452;BME280;24231;52.514;13.438;2023-07-29T07:39:22;100245.90;;;28.60;43.94
38452;BME280;24231;52.514;13.438;2023-07-29T07:41:49;100240.90;;;28.56;43.82
38452;BME280;24231;52.514;13.438;2023-07-29T07:44:17;100241.05;;;28.67;44.35
38452;BME280;24231;52.514;13.438;2023-07-29T07:46:44;100234.61;;;29.29;43.07
38452;BME280;24231;52.514;13.438;2023-07-29T07:49:12;100234.56;;;29.09;43.35
38452;BME280;24231;52.514;13.438;2023-07-29T07:51:39;100229.36;;;28.65;43.68
38452;BME280;24231;52.514;13.438;2023-07-29T07:54:12;100222.46;;;29.73;42.10
38452;BME280;24231;52.514;13.438;2023-07-29T07:56:39;100223.09;;;29.65;42.13
38452;BME280;24231;52.514;13.438;2023-07-29T07:59:07;100222.67;;;29.09;43.82
38452;BME280;24231;52.514;13.438;2023-07-29T08:01:35;100218.47;;;29.40;43.56
38452;BME280;24231;52.514;13.438;2023-07-29T08:04:03;100214.02;;;30.48;41.07
38452;BME280;24231;52.514;13.438;2023-07-29T08:06:31;100211.75;;;31.00;39.75
38452;BME280;24231;52.514;13.438;2023-07-29T08:08:59;100216.27;;;31.28;39.91
38452;BME280;24231;52.514;13.438;2023-07-29T08:11:26;100217.10;;;32.07;37.92
38452;BME280;24231;52.514;13.438;2023-07-29T08:13:54;100214.41;;;31.77;37.61
38452;BME280;24231;52.514;13.438;2023-07-29T08:16:21;100212.21;;;30.29;41.21
38452;BME280;24231;52.514;13.438;2023-07-29T08:18:49;100210.41;;;30.31;39.74
38452;BME280;24231;52.514;13.438;2023-07-29T08:21:16;100216.19;;;31.27;39.12
38452;BME280;24231;52.514;13.438;2023-07-29T08:23:44;100214.30;;;31.08;40.03
38452;BME280;24231;52.514;13.438;2023-07-29T08:26:12;100209.49;;;30.84;39.54
38452;BME280;24231;52.514;13.438;2023-07-29T08:28:40;100208.58;;;29.81;40.44
38452;BME280;24231;52.514;13.438;2023-07-29T08:31:07;100210.13;;;28.12;44.28
38452;BME280;24231;52.514;13.438;2023-07-29T08:33:35;100200.55;;;29.51;41.10
38452;BME280;24231;52.514;13.438;2023-07-29T08:36:03;100201.16;;;29.16;43.11
38452;BME280;24231;52.514;13.438;2023-07-29T08:38:30;100196.18;;;30.04;40.75
38452;BME280;24231;52.514;13.438;2023-07-29T08:41:04;100196.71;;;29.43;42.23
38452;BME280;24231;52.514;13.438;2023-07-29T08:43:33;100188.53;;;30.00;40.79
38452;BME280;24231;52.514;13.438;2023-07-29T08:46:02;100192.09;;;30.65;41.00
38452;BME280;24231;52.514;13.438;2023-07-29T08:48:35;100195.25;;;29.39;41.72
38452;BME280;24231;52.514;13.438;2023-07-29T08:51:04;100199.15;;;29.06;43.07
38452;BME280;24231;52.514;13.438;2023-07-29T08:53:33;100191.61;;;27.66;45.98
38452;BME280;24231;52.514;13.438;2023-07-29T08:56:01;100197.16;;;28.91;42.92
38452;BME280;24231;52.514;13.438;2023-07-29T08:58:28;100192.38;;;29.21;42.39
38452;BME280;24231;52.514;13.438;2023-07-29T09:00:56;100190.11;;;28.36;44.59
38452;BME280;24231;52.514;13.438;2023-07-29T09:03:23;100192.73;;;28.68;43.90
38452;BME280;24231;52.514;13.438;2023-07-29T09:05:51;100187.47;;;29.51;43.37
38452;BME280;24231;52.514;13.438;2023-07-29T09:08:20;100190.00;;;29.62;43.47
38452;BME280;24231;52.514;13.438;2023-07-29T09:10:48;100189.26;;;29.18;43.05
38452;BME280;24231;52.514;13.438;2023-07-29T09:13:15;100184.34;;;29.46;42.44
38452;BME280;24231;52.514;13.438;2023-07-29T09:15:42;100189.70;;;29.03;43.21
38452;BME280;24231;52.514;13.438;2023-07-29T09:18:12;100186.42;;;27.96;44.82
38452;BME280;24231;52.514;13.438;2023-07-29T09:20:39;100176.16;;;29.40;42.32
38452;BME280;24231;52.514;13.438;2023-07-29T09:23:08;100176.02;;;26.59;49.38
38452;BME280;24231;52.514;13.438;2023-07-29T09:25:35;100171.05;;;27.39;47.31
38452;BME280;24231;52.514;13.438;2023-07-29T09:28:09;100166.92;;;27.79;46.84
38452;BME280;24231;52.514;13.438;2023-07-29T09:30:38;100166.21;;;27.85;47.09
38452;BME280;24231;52.514;13.438;2023-07-29T09:33:06;100164.85;;;27.90;45.49
38452;BME280;24231;52.514;13.438;2023-07-29T09:35:35;100162.28;;;27.76;45.96
38452;BME280;24231;52.514;13.438;2023-07-29T09:38:03;100163.19;;;26.64;48.55
38452;BME280;24231;52.514;13.438;2023-07-29T09:40:35;100160.42;;;26.21;50.92
38452;BME280;24231;52.514;13.438;2023-07-29T09:43:02;100155.69;;;27.79;47.17
38452;BME280;24231;52.514;13.438;2023-07-29T09:45:29;100154.03;;;28.36;45.74
38452;BME280;24231;52.514;13.438;2023-07-29T09:47:57;100151.18;;;27.84;47.10
38452;BME280;24231;52.514;13.438;2023-07-29T09:50:26;100149.87;;;28.17;46.42
38452;BME280;24231;52.514;13.438;2023-07-29T09:52:53;100146.53;;;29.63;42.88
38452;BME280;24231;52.514;13.438;2023-07-29T09:55:22;100151.19;;;28.93;44.52
38452;BME280;24231;52.514;13.438;2023-07-29T09:57:54;100143.09;;;26.64;48.90
38452;BME280;24231;52.514;13.438;2023-07-29T10:00:23;100136.16;;;27.09;47.99
38452;BME280;24231;52.514;13.438;2023-07-29T10:02:51;100133.39;;;26.58;49.48
38452;BME280;24231;52.514;13.438;2023-07-29T10:05:21;100132.46;;;27.06;48.33
38452;BME280;24231;52.514;13.438;2023-07-29T10:07:48;100133.32;;;28.83;44.56
38452;BME280;24231;52.514;13.438;2023-07-29T10:10:17;100134.64;;;27.46;46.92
38452;BME280;24231;52.514;13.438;2023-07-29T10:12:45;100128.85;;;27.97;46.65
38452;BME280;24231;52.514;13.438;2023-07-29T10:15:13;100120.83;;;27.31;48.10
38452;BME280;24231;52.514;13.438;2023-07-29T10:17:40;100114.59;;;28.99;44.57
38452;BME280;24231;52.514;13.438;2023-07-29T10:20:10;100116.52;;;29.79;42.79
38452;BME280;24231;52.514;13.438;2023-07-29T10:22:38;100125.09;;;28.50;45.57
38452;BME280;24231;52.514;13.438;2023-07-29T10:25:09;100117.86;;;26.67;48.78
38452;BME280;24231;52.514;13.438;2023-07-29T10:27:43;100114.40;;;26.11;51.22
38452;BME280;24231;52.514;13.438;2023-07-29T10:30:11;100107.16;;;28.95;43.91
38452;BME280;24231;52.514;13.438;2023-07-29T10:32:39;100105.58;;;26.51;49.07
38452;BME280;24231;52.514;13.438;2023-07-29T10:35:09;100098.20;;;26.28;49.57
38452;BME280;24231;52.514;13.438;2023-07-29T10:37:36;100097.48;;;25.54;51.26
38452;BME280;24231;52.514;13.438;2023-07-29T10:40:07;100093.72;;;25.50;51.78
38452;BME280;24231;52.514;13.438;2023-07-29T10:42:34;100091.22;;;25.12;53.51
38452;BME280;24231;52.514;13.438;2023-07-29T10:45:18;100087.36;;;25.11;53.58
38452;BME280;24231;52.514;13.438;2023-07-29T10:47:46;100076.41;;;25.90;51.81
38452;BME280;24231;52.514;13.438;2023-07-29T10:50:21;100070.23;;;25.32;53.44
38452;BME280;24231;52.514;13.438;2023-07-29T10:52:51;100058.93;;;24.99;54.90
38452;BME280;24231;52.514;13.438;2023-07-29T10:55:35;100059.64;;;25.07;55.19
38452;BME280;24231;52.514;13.438;2023-07-29T10:58:08;100066.91;;;24.76;55.27
38452;BME280;24231;52.514;13.438;2023-07-29T11:00:36;100073.58;;;24.63;55.86
38452;BME280;24231;52.514;13.438;2023-07-29T11:03:05;100081.06;;;24.18;56.91
38452;BME280;24231;52.514;13.438;2023-07-29T11:06:05;100087.95;;;23.74;56.80
38452;BME280;24231;52.514;13.438;2023-07-29T11:08:32;100090.82;;;23.85;56.17
38452;BME280;24231;52.514;13.438;2023-07-29T11:11:02;100077.66;;;24.55;54.05
38452;BME280;24231;52.514;13.438;2023-07-29T11:13:31;100066.97;;;24.80;52.82
38452;BME280;24231;52.514;13.438;2023-07-29T11:15:58;100074.97;;;25.10;52.55
38452;BME280;24231;52.514;13.438;2023-07-29T11:18:28;100094.07;;;25.33;51.26
38452;BME280;24231;52.514;13.438;2023-07-29T11:20:56;100114.65;;;25.47;53.13
38452;BME280;24231;52.514;13.438;2023-07-29T11:23:28;100143.82;;;24.40;57.80
38452;BME280;24231;52.514;13.438;2023-07-29T11:25:55;100153.95;;;24.43;59.66
38452;BME280;24231;52.514;13.438;2023-07-29T11:28:23;100152.93;;;24.49;59.60
38452;BME280;24231;52.514;13.438;2023-07-29T11:30:51;100143.41;;;24.16;59.47
38452;BME280;24231;52.514;13.438;2023-07-29T11:33:20;100140.18;;;24.38;60.09
38452;BME280;24231;52.514;13.438;2023-07-29T11:35:47;100129.68;;;25.11;57.49
38452;BME280;24231;52.514;13.438;2023-07-29T11:38:16;100127.47;;;23.59;62.81
38452;BME280;24231;52.514;13.438;2023-07-29T11:40:54;100123.34;;;25.66;56.98
38452;BME280;24231;52.514;13.438;2023-07-29T11:43:22;100127.48;;;24.43;60.95
38452;BME280;24231;52.514;13.438;2023-07-29T11:45:50;100116.32;;;25.76;57.13
38452;BME280;24231;52.514;13.438;2023-07-29T11:48:18;100113.75;;;26.20;55.24
38452;BME280;24231;52.514;13.438;2023-07-29T11:50:45;100104.93;;;26.72;53.13
38452;BME280;24231;52.514;13.438;2023-07-29T11:53:12;100104.98;;;25.03;57.60
38452;BME280;24231;52.514;13.438;2023-07-29T11:55:40;100107.66;;;24.22;59.56
38452;BME280;24231;52.514;13.438;2023-07-29T11:58:07;100107.15;;;24.39;59.19
38452;BME280;24231;52.514;13.438;2023-07-29T12:00:34;100100.05;;;26.34;54.76
38452;BME280;24231;52.514;13.438;2023-07-29T12:03:01;100096.71;;;24.67;59.07
38452;BME280;24231;52.514;13.438;2023-07-29T12:05:29;100088.27;;;24.90;58.87
38452;BME280;24231;52.514;13.438;2023-07-29T12:07:57;100087.70;;;25.14;57.51
38452;BME280;24231;52.514;13.438;2023-07-29T12:10:26;100092.48;;;26.34;55.97
38452;BME280;24231;52.514;13.438;2023-07-29T12:12:53;100092.27;;;26.68;55.04
38452;BME280;24231;52.514;13.438;2023-07-29T12:15:24;100092.43;;;26.16;56.55
38452;BME280;24231;52.514;13.438;2023-07-29T12:17:54;100096.29;;;27.00;54.23
38452;BME280;24231;52.514;13.438;2023-07-29T12:20:21;100095.40;;;27.24;54.36
38452;BME280;24231;52.514;13.438;2023-07-29T12:22:52;100099.38;;;27.44;52.80
38452;BME280;24231;52.514;13.438;2023-07-29T12:25:20;100104.10;;;27.24;53.36
38452;BME280;24231;52.514;13.438;2023-07-29T12:27:47;100100.29;;;27.36;53.05
38452;BME280;24231;52.514;13.438;2023-07-29T12:30:15;100096.93;;;26.80;54.01
38452;BME280;24231;52.514;13.438;2023-07-29T12:32:44;100096.76;;;27.18;53.69
38452;BME280;24231;52.514;13.438;2023-07-29T12:35:12;100100.52;;;27.26;53.98
38452;BME280;24231;52.514;13.438;2023-07-29T12:37:40;100109.00;;;26.48;55.56
38452;BME280;24231;52.514;13.438;2023-07-29T12:40:08;100108.70;;;26.49;56.55
38452;BME280;24231;52.514;13.438;2023-07-29T12:42:35;100107.63;;;26.43;55.32
38452;BME280;24231;52.514;13.438;2023-07-29T12:45:03;100102.40;;;25.37;58.48
38452;BME280;24231;52.514;13.438;2023-07-29T12:47:30;100089.28;;;27.17;53.87